sensor_id;sensor_type;location;lat;lon;timestamp;temperature;humidity
66708;DHT22;53622;0.000;0.000;2022-09-27T00:01:31;21.70;65.50
66708;DHT22;53622;0.000;0.000;2022-09-27T00:04:01;21.70;65.40
66708;DHT22;53622;0.000;0.000;2022-09-27T00:06:31;21.70;65.50
66708;DHT22;53622;0.000;0.000;2022-09-27T00:09:08;21.70;65.40
66708;DHT22;53622;0.000;0.000;2022-09-27T00:11:40;21.70;65.40
66708;DHT22;53622;0.000;0.000;2022-09-27T00:14:11;21.70;65.40
66708;DHT22;53622;0.000;0.000;2022-09-27T00:16:42;21.70;65.50
66708;DHT22;53622;0.000;0.000;2022-09-27T00:19:13;21.70;65.40
66708;DHT22;53622;0.000;0.000;2022-09-27T00:21:43;21.70;65.40
66708;DHT22;53622;0.000;0.000;2022-09-27T00:24:15;21.70;65.30
66708;DHT22;53622;0.000;0.000;2022-09-27T00:26:46;21.70;65.40
66708;DHT22;53622;0.000;0.000;2022-09-27T00:29:17;21.70;65.40
66708;DHT22;53622;0.000;0.000;2022-09-27T00:31:47;21.70;65.40
66708;DHT22;53622;0.000;0.000;2022-09-27T00:34:18;21.70;65.40
66708;DHT22;53622;0.000;0.000;2022-09-27T00:36:49;21.70;65.40
66708;DHT22;53622;0.000;0.000;2022-09-27T00:39:19;21.70;65.40
66708;DHT22;53622;0.000;0.000;2022-09-27T00:41:50;21.70;65.30
66708;DHT22;53622;0.000;0.000;2022-09-27T00:44:57;21.70;65.30
66708;DHT22;53622;0.000;0.000;2022-09-27T00:47:32;21.70;65.30
66708;DHT22;53622;0.000;0.000;2022-09-27T00:50:09;21.60;65.40
66708;DHT22;53622;0.000;0.000;2022-09-27T00:52:46;21.60;65.30
66708;DHT22;53622;0.000;0.000;2022-09-27T00:55:19;21.60;65.30
66708;DHT22;53622;0.000;0.000;2022-09-27T00:57:51;21.60;65.50
66708;DHT22;53622;0.000;0.000;2022-09-27T01:00:22;21.60;65.40
66708;DHT22;53622;0.000;0.000;2022-09-27T01:02:52;21.60;65.30
66708;DHT22;53622;0.000;0.000;2022-09-27T01:05:26;21.60;65.30
66708;DHT22;53622;0.000;0.000;2022-09-27T01:07:56;21.60;65.30
66708;DHT22;53622;0.000;0.000;2022-09-27T01:10:31;21.60;65.30
66708;DHT22;53622;0.000;0.000;2022-09-27T01:13:12;21.60;65.30
66708;DHT22;53622;0.000;0.000;2022-09-27T01:15:49;21.60;65.30
66708;DHT22;53622;0.000;0.000;2022-09-27T01:18:29;21.60;65.30
66708;DHT22;53622;0.000;0.000;2022-09-27T01:21:29;21.60;65.20
66708;DHT22;53622;0.000;0.000;2022-09-27T01:24:25;21.60;65.30
66708;DHT22;53622;0.000;0.000;2022-09-27T01:30:24;21.60;65.30
66708;DHT22;53622;0.000;0.000;2022-09-27T01:33:08;21.60;65.40
66708;DHT22;53622;0.000;0.000;2022-09-27T01:35:49;21.60;65.30
66708;DHT22;53622;0.000;0.000;2022-09-27T01:38:31;21.60;65.30
66708;DHT22;53622;0.000;0.000;2022-09-27T01:41:07;21.60;65.40
66708;DHT22;53622;0.000;0.000;2022-09-27T01:43:45;21.60;65.20
66708;DHT22;53622;0.000;0.000;2022-09-27T01:46:26;21.60;65.30
66708;DHT22;53622;0.000;0.000;2022-09-27T01:49:15;21.60;65.30
66708;DHT22;53622;0.000;0.000;2022-09-27T01:51:48;21.60;65.20
66708;DHT22;53622;0.000;0.000;2022-09-27T01:54:24;21.60;65.30
66708;DHT22;53622;0.000;0.000;2022-09-27T01:57:18;21.60;65.20
66708;DHT22;53622;0.000;0.000;2022-09-27T01:59:51;21.60;65.20
66708;DHT22;53622;0.000;0.000;2022-09-27T02:02:45;21.60;65.20
66708;DHT22;53622;0.000;0.000;2022-09-27T02:05:33;21.60;65.20
66708;DHT22;53622;0.000;0.000;2022-09-27T02:08:30;21.60;65.20
66708;DHT22;53622;0.000;0.000;2022-09-27T02:11:07;21.60;65.20
66708;DHT22;53622;0.000;0.000;2022-09-27T02:13:47;21.50;65.20
66708;DHT22;53622;0.000;0.000;2022-09-27T02:16:51;21.60;65.30
66708;DHT22;53622;0.000;0.000;2022-09-27T02:19:35;21.50;65.10
66708;DHT22;53622;0.000;0.000;2022-09-27T02:22:12;21.50;65.10
66708;DHT22;53622;0.000;0.000;2022-09-27T02:24:47;21.50;65.10
66708;DHT22;53622;0.000;0.000;2022-09-27T02:27:23;21.50;65.00
66708;DHT22;53622;0.000;0.000;2022-09-27T02:29:59;21.50;65.20
66708;DHT22;53622;0.000;0.000;2022-09-27T02:32:31;21.50;65.20
66708;DHT22;53622;0.000;0.000;2022-09-27T02:35:07;21.50;65.10
66708;DHT22;53622;0.000;0.000;2022-09-27T02:37:38;21.50;65.10
66708;DHT22;53622;0.000;0.000;2022-09-27T02:40:09;21.50;65.20
66708;DHT22;53622;0.000;0.000;2022-09-27T02:42:40;21.50;65.10
66708;DHT22;53622;0.000;0.000;2022-09-27T02:45:11;21.50;65.10
66708;DHT22;53622;0.000;0.000;2022-09-27T02:47:58;21.50;65.10
66708;DHT22;53622;0.000;0.000;2022-09-27T02:53:44;21.50;65.10
66708;DHT22;53622;0.000;0.000;2022-09-27T02:56:47;21.50;65.20
66708;DHT22;53622;0.000;0.000;2022-09-27T03:00:00;21.50;65.20
66708;DHT22;53622;0.000;0.000;2022-09-27T03:02:57;21.50;65.10
66708;DHT22;53622;0.000;0.000;2022-09-27T03:05:36;21.50;65.20
66708;DHT22;53622;0.000;0.000;2022-09-27T03:08:09;21.50;65.20
66708;DHT22;53622;0.000;0.000;2022-09-27T03:10:39;21.50;65.10
66708;DHT22;53622;0.000;0.000;2022-09-27T03:13:08;21.50;65.10
66708;DHT22;53622;0.000;0.000;2022-09-27T03:15:38;21.50;65.90
66708;DHT22;53622;0.000;0.000;2022-09-27T03:18:07;21.50;65.10
66708;DHT22;53622;0.000;0.000;2022-09-27T03:20:59;21.50;65.10
66708;DHT22;53622;0.000;0.000;2022-09-27T03:23:29;21.50;65.10
66708;DHT22;53622;0.000;0.000;2022-09-27T03:25:59;21.50;65.10
66708;DHT22;53622;0.000;0.000;2022-09-27T03:28:28;21.50;65.00
66708;DHT22;53622;0.000;0.000;2022-09-27T03:30:58;21.50;65.00
66708;DHT22;53622;0.000;0.000;2022-09-27T03:33:44;21.50;65.00
66708;DHT22;53622;0.000;0.000;2022-09-27T03:36:13;21.50;64.90
66708;DHT22;53622;0.000;0.000;2022-09-27T03:38:45;21.50;64.90
66708;DHT22;53622;0.000;0.000;2022-09-27T03:41:17;21.50;65.00
66708;DHT22;53622;0.000;0.000;2022-09-27T03:43:46;21.40;64.90
66708;DHT22;53622;0.000;0.000;2022-09-27T03:46:16;21.50;65.00
66708;DHT22;53622;0.000;0.000;2022-09-27T03:48:45;21.50;65.00
66708;DHT22;53622;0.000;0.000;2022-09-27T03:51:15;21.50;65.00
66708;DHT22;53622;0.000;0.000;2022-09-27T03:53:45;21.50;65.00
66708;DHT22;53622;0.000;0.000;2022-09-27T03:56:15;21.50;65.00
66708;DHT22;53622;0.000;0.000;2022-09-27T03:58:44;21.40;64.90
66708;DHT22;53622;0.000;0.000;2022-09-27T04:01:14;21.40;64.90
66708;DHT22;53622;0.000;0.000;2022-09-27T04:03:50;21.40;64.90
66708;DHT22;53622;0.000;0.000;2022-09-27T04:06:29;21.40;64.90
66708;DHT22;53622;0.000;0.000;2022-09-27T04:09:00;21.40;64.90
66708;DHT22;53622;0.000;0.000;2022-09-27T04:11:49;21.40;64.90
66708;DHT22;53622;0.000;0.000;2022-09-27T04:14:18;21.40;64.90
66708;DHT22;53622;0.000;0.000;2022-09-27T04:17:08;21.40;64.80
66708;DHT22;53622;0.000;0.000;2022-09-27T04:20:04;21.40;64.90
66708;DHT22;53622;0.000;0.000;2022-09-27T04:22:38;21.40;65.00
66708;DHT22;53622;0.000;0.000;2022-09-27T04:25:10;21.40;64.90
66708;DHT22;53622;0.000;0.000;2022-09-27T04:27:43;21.40;65.00
66708;DHT22;53622;0.000;0.000;2022-09-27T04:30:14;21.50;64.90
66708;DHT22;53622;0.000;0.000;2022-09-27T04:33:19;21.40;65.00
66708;DHT22;53622;0.000;0.000;2022-09-27T04:36:21;21.50;65.00
66708;DHT22;53622;0.000;0.000;2022-09-27T04:39:06;21.50;65.10
66708;DHT22;53622;0.000;0.000;2022-09-27T04:41:46;21.50;64.90
66708;DHT22;53622;0.000;0.000;2022-09-27T04:44:15;21.50;65.60
66708;DHT22;53622;0.000;0.000;2022-09-27T04:46:49;21.50;65.90
66708;DHT22;53622;0.000;0.000;2022-09-27T04:49:18;21.50;65.90
66708;DHT22;53622;0.000;0.000;2022-09-27T04:51:48;21.50;66.10
66708;DHT22;53622;0.000;0.000;2022-09-27T04:54:17;21.50;66.00
66708;DHT22;53622;0.000;0.000;2022-09-27T04:56:57;21.50;66.20
66708;DHT22;53622;0.000;0.000;2022-09-27T04:59:26;21.50;66.10
66708;DHT22;53622;0.000;0.000;2022-09-27T05:01:55;21.50;66.00
66708;DHT22;53622;0.000;0.000;2022-09-27T05:05:03;21.50;65.90
66708;DHT22;53622;0.000;0.000;2022-09-27T05:07:38;21.50;65.90
66708;DHT22;53622;0.000;0.000;2022-09-27T05:10:12;21.60;65.90
66708;DHT22;53622;0.000;0.000;2022-09-27T05:12:43;21.60;65.80
66708;DHT22;53622;0.000;0.000;2022-09-27T05:15:15;21.50;65.60
66708;DHT22;53622;0.000;0.000;2022-09-27T05:18:03;21.60;65.60
66708;DHT22;53622;0.000;0.000;2022-09-27T05:20:32;21.60;65.50
66708;DHT22;53622;0.000;0.000;2022-09-27T05:23:12;21.60;65.50
66708;DHT22;53622;0.000;0.000;2022-09-27T05:25:42;21.60;65.50
66708;DHT22;53622;0.000;0.000;2022-09-27T05:28:12;21.60;65.40
66708;DHT22;53622;0.000;0.000;2022-09-27T05:30:42;21.60;65.40
66708;DHT22;53622;0.000;0.000;2022-09-27T05:33:18;21.60;65.50
66708;DHT22;53622;0.000;0.000;2022-09-27T05:35:54;21.60;65.40
66708;DHT22;53622;0.000;0.000;2022-09-27T05:38:28;21.60;65.20
66708;DHT22;53622;0.000;0.000;2022-09-27T05:40:59;21.50;65.40
66708;DHT22;53622;0.000;0.000;2022-09-27T05:43:33;21.60;65.70
66708;DHT22;53622;0.000;0.000;2022-09-27T05:46:03;21.50;65.40
66708;DHT22;53622;0.000;0.000;2022-09-27T05:48:36;21.50;65.60
66708;DHT22;53622;0.000;0.000;2022-09-27T05:51:07;21.50;65.60
66708;DHT22;53622;0.000;0.000;2022-09-27T05:53:39;21.50;65.50
66708;DHT22;53622;0.000;0.000;2022-09-27T05:56:16;21.50;65.40
66708;DHT22;53622;0.000;0.000;2022-09-27T05:59:13;21.50;65.40
66708;DHT22;53622;0.000;0.000;2022-09-27T06:02:01;21.50;65.50
66708;DHT22;53622;0.000;0.000;2022-09-27T06:04:49;21.50;65.40
66708;DHT22;53622;0.000;0.000;2022-09-27T06:07:41;21.50;65.40
66708;DHT22;53622;0.000;0.000;2022-09-27T06:10:17;21.50;65.40
66708;DHT22;53622;0.000;0.000;2022-09-27T06:12:47;21.50;65.40
66708;DHT22;53622;0.000;0.000;2022-09-27T06:15:34;21.50;65.50
66708;DHT22;53622;0.000;0.000;2022-09-27T06:18:05;21.50;65.50
66708;DHT22;53622;0.000;0.000;2022-09-27T06:20:35;21.40;65.30
66708;DHT22;53622;0.000;0.000;2022-09-27T06:23:06;21.40;65.40
66708;DHT22;53622;0.000;0.000;2022-09-27T06:25:37;21.40;65.40
66708;DHT22;53622;0.000;0.000;2022-09-27T06:28:24;21.40;65.30
66708;DHT22;53622;0.000;0.000;2022-09-27T06:30:57;21.40;65.30
66708;DHT22;53622;0.000;0.000;2022-09-27T06:33:37;21.40;65.30
66708;DHT22;53622;0.000;0.000;2022-09-27T06:36:07;21.40;65.40
66708;DHT22;53622;0.000;0.000;2022-09-27T06:38:38;21.40;65.30
66708;DHT22;53622;0.000;0.000;2022-09-27T06:41:13;21.40;65.30
66708;DHT22;53622;0.000;0.000;2022-09-27T06:44:09;21.40;65.30
66708;DHT22;53622;0.000;0.000;2022-09-27T06:46:59;21.40;65.30
66708;DHT22;53622;0.000;0.000;2022-09-27T06:49:55;21.40;65.40
66708;DHT22;53622;0.000;0.000;2022-09-27T06:52:25;21.30;65.30
66708;DHT22;53622;0.000;0.000;2022-09-27T06:54:54;21.30;65.30
66708;DHT22;53622;0.000;0.000;2022-09-27T06:57:24;21.30;65.30
66708;DHT22;53622;0.000;0.000;2022-09-27T07:00:10;21.30;65.30
66708;DHT22;53622;0.000;0.000;2022-09-27T07:03:11;21.30;65.30
66708;DHT22;53622;0.000;0.000;2022-09-27T07:06:21;21.30;65.30
66708;DHT22;53622;0.000;0.000;2022-09-27T07:09:12;21.30;65.40
66708;DHT22;53622;0.000;0.000;2022-09-27T07:11:42;21.30;65.40
66708;DHT22;53622;0.000;0.000;2022-09-27T07:14:13;21.30;65.30
66708;DHT22;53622;0.000;0.000;2022-09-27T07:16:44;21.30;65.30
66708;DHT22;53622;0.000;0.000;2022-09-27T07:19:15;21.30;65.20
66708;DHT22;53622;0.000;0.000;2022-09-27T07:21:50;21.30;65.10
66708;DHT22;53622;0.000;0.000;2022-09-27T07:24:19;21.30;65.10
66708;DHT22;53622;0.000;0.000;2022-09-27T07:26:49;21.30;65.10
66708;DHT22;53622;0.000;0.000;2022-09-27T07:29:21;21.30;65.10
66708;DHT22;53622;0.000;0.000;2022-09-27T07:31:52;21.30;65.00
66708;DHT22;53622;0.000;0.000;2022-09-27T07:34:23;21.40;65.10
66708;DHT22;53622;0.000;0.000;2022-09-27T07:36:52;21.40;65.00
66708;DHT22;53622;0.000;0.000;2022-09-27T07:39:27;21.40;65.00
66708;DHT22;53622;0.000;0.000;2022-09-27T07:41:56;21.40;65.00
66708;DHT22;53622;0.000;0.000;2022-09-27T07:44:26;21.40;64.90
66708;DHT22;53622;0.000;0.000;2022-09-27T07:47:25;21.40;64.90
66708;DHT22;53622;0.000;0.000;2022-09-27T07:50:21;21.40;64.90
66708;DHT22;53622;0.000;0.000;2022-09-27T07:53:11;21.30;64.90
66708;DHT22;53622;0.000;0.000;2022-09-27T07:56:10;21.30;64.90
66708;DHT22;53622;0.000;0.000;2022-09-27T07:58:39;21.40;65.70
66708;DHT22;53622;0.000;0.000;2022-09-27T08:01:09;21.40;64.90
66708;DHT22;53622;0.000;0.000;2022-09-27T08:03:38;21.40;64.70
66708;DHT22;53622;0.000;0.000;2022-09-27T08:06:09;21.40;64.70
66708;DHT22;53622;0.000;0.000;2022-09-27T08:08:39;21.40;64.70
66708;DHT22;53622;0.000;0.000;2022-09-27T08:11:12;21.40;64.60
66708;DHT22;53622;0.000;0.000;2022-09-27T08:13:44;21.40;64.60
66708;DHT22;53622;0.000;0.000;2022-09-27T08:16:14;21.40;64.70
66708;DHT22;53622;0.000;0.000;2022-09-27T08:19:02;21.40;64.70
66708;DHT22;53622;0.000;0.000;2022-09-27T08:21:52;21.40;64.60
66708;DHT22;53622;0.000;0.000;2022-09-27T08:24:46;21.40;64.60
66708;DHT22;53622;0.000;0.000;2022-09-27T08:27:33;21.40;64.60
66708;DHT22;53622;0.000;0.000;2022-09-27T08:30:16;21.40;64.60
66708;DHT22;53622;0.000;0.000;2022-09-27T08:32:46;21.40;64.60
66708;DHT22;53622;0.000;0.000;2022-09-27T08:35:15;21.40;64.60
66708;DHT22;53622;0.000;0.000;2022-09-27T08:37:53;21.40;64.60
66708;DHT22;53622;0.000;0.000;2022-09-27T08:40:27;21.40;64.60
66708;DHT22;53622;0.000;0.000;2022-09-27T08:43:05;21.40;64.50
66708;DHT22;53622;0.000;0.000;2022-09-27T08:45:48;21.40;64.50
66708;DHT22;53622;0.000;0.000;2022-09-27T08:48:19;21.40;64.50
66708;DHT22;53622;0.000;0.000;2022-09-27T08:50:50;21.40;64.50
66708;DHT22;53622;0.000;0.000;2022-09-27T08:53:25;21.40;64.50
66708;DHT22;53622;0.000;0.000;2022-09-27T08:55:58;21.40;64.40
66708;DHT22;53622;0.000;0.000;2022-09-27T08:58:40;21.40;64.40
66708;DHT22;53622;0.000;0.000;2022-09-27T09:01:33;21.40;64.40
66708;DHT22;53622;0.000;0.000;2022-09-27T09:04:10;21.40;64.40
66708;DHT22;53622;0.000;0.000;2022-09-27T09:06:44;21.40;64.30
66708;DHT22;53622;0.000;0.000;2022-09-27T09:09:27;21.40;64.20
66708;DHT22;53622;0.000;0.000;2022-09-27T09:12:33;21.50;64.20
66708;DHT22;53622;0.000;0.000;2022-09-27T09:15:40;21.40;64.20
66708;DHT22;53622;0.000;0.000;2022-09-27T09:18:33;21.40;64.30
66708;DHT22;53622;0.000;0.000;2022-09-27T09:21:24;21.40;64.30
66708;DHT22;53622;0.000;0.000;2022-09-27T09:24:07;21.40;64.30
66708;DHT22;53622;0.000;0.000;2022-09-27T09:26:48;21.40;64.30
66708;DHT22;53622;0.000;0.000;2022-09-27T09:29:36;21.40;64.30
66708;DHT22;53622;0.000;0.000;2022-09-27T09:32:16;21.40;64.30
66708;DHT22;53622;0.000;0.000;2022-09-27T09:34:53;21.40;64.30
66708;DHT22;53622;0.000;0.000;2022-09-27T09:37:34;21.40;64.30
66708;DHT22;53622;0.000;0.000;2022-09-27T09:40:12;21.40;64.30
66708;DHT22;53622;0.000;0.000;2022-09-27T09:42:49;21.40;64.30
66708;DHT22;53622;0.000;0.000;2022-09-27T09:45:24;21.40;64.30
66708;DHT22;53622;0.000;0.000;2022-09-27T09:48:01;21.40;64.20
66708;DHT22;53622;0.000;0.000;2022-09-27T09:50:38;21.40;64.30
66708;DHT22;53622;0.000;0.000;2022-09-27T09:53:14;21.40;64.30
66708;DHT22;53622;0.000;0.000;2022-09-27T09:55:47;21.40;64.20
66708;DHT22;53622;0.000;0.000;2022-09-27T09:58:23;21.40;64.10
66708;DHT22;53622;0.000;0.000;2022-09-27T10:01:12;21.40;64.10
66708;DHT22;53622;0.000;0.000;2022-09-27T10:03:44;21.40;64.10
66708;DHT22;53622;0.000;0.000;2022-09-27T10:06:15;21.40;64.10
66708;DHT22;53622;0.000;0.000;2022-09-27T10:08:46;21.40;64.00
66708;DHT22;53622;0.000;0.000;2022-09-27T10:11:39;21.40;64.00
66708;DHT22;53622;0.000;0.000;2022-09-27T10:14:16;21.40;64.10
66708;DHT22;53622;0.000;0.000;2022-09-27T10:16:47;21.40;64.00
66708;DHT22;53622;0.000;0.000;2022-09-27T10:19:24;21.40;63.90
66708;DHT22;53622;0.000;0.000;2022-09-27T10:22:00;21.40;64.00
66708;DHT22;53622;0.000;0.000;2022-09-27T10:24:55;21.40;64.00
66708;DHT22;53622;0.000;0.000;2022-09-27T10:27:45;21.40;64.00
66708;DHT22;53622;0.000;0.000;2022-09-27T10:30:28;21.30;63.90
66708;DHT22;53622;0.000;0.000;2022-09-27T10:33:04;21.30;63.90
66708;DHT22;53622;0.000;0.000;2022-09-27T10:35:46;21.30;63.90
66708;DHT22;53622;0.000;0.000;2022-09-27T10:38:25;21.30;63.90
66708;DHT22;53622;0.000;0.000;2022-09-27T10:41:23;21.30;64.00
66708;DHT22;53622;0.000;0.000;2022-09-27T10:44:19;21.30;63.90
66708;DHT22;53622;0.000;0.000;2022-09-27T10:47:06;21.40;63.90
66708;DHT22;53622;0.000;0.000;2022-09-27T10:50:02;21.40;63.90
66708;DHT22;53622;0.000;0.000;2022-09-27T10:53:02;21.40;64.00
66708;DHT22;53622;0.000;0.000;2022-09-27T10:55:34;21.30;63.80
66708;DHT22;53622;0.000;0.000;2022-09-27T10:58:16;21.30;63.90
66708;DHT22;53622;0.000;0.000;2022-09-27T11:00:54;21.40;63.80
66708;DHT22;53622;0.000;0.000;2022-09-27T11:03:26;21.40;63.80
66708;DHT22;53622;0.000;0.000;2022-09-27T11:05:58;21.40;63.80
66708;DHT22;53622;0.000;0.000;2022-09-27T11:08:29;21.40;63.80
66708;DHT22;53622;0.000;0.000;2022-09-27T11:11:17;21.30;63.70
66708;DHT22;53622;0.000;0.000;2022-09-27T11:13:59;21.40;63.80
66708;DHT22;53622;0.000;0.000;2022-09-27T11:16:44;21.40;63.80
66708;DHT22;53622;0.000;0.000;2022-09-27T11:19:31;21.30;63.80
66708;DHT22;53622;0.000;0.000;2022-09-27T11:22:07;21.40;63.80
66708;DHT22;53622;0.000;0.000;2022-09-27T11:24:51;21.30;63.70
66708;DHT22;53622;0.000;0.000;2022-09-27T11:27:36;21.40;63.80
66708;DHT22;53622;0.000;0.000;2022-09-27T11:30:10;21.40;63.70
66708;DHT22;53622;0.000;0.000;2022-09-27T11:36:30;21.40;63.70
66708;DHT22;53622;0.000;0.000;2022-09-27T11:39:05;21.30;63.70
66708;DHT22;53622;0.000;0.000;2022-09-27T11:44:53;21.30;63.70
66708;DHT22;53622;0.000;0.000;2022-09-27T11:47:52;21.30;63.60
66708;DHT22;53622;0.000;0.000;2022-09-27T11:53:38;21.30;63.60
66708;DHT22;53622;0.000;0.000;2022-09-27T11:56:21;21.30;63.60
66708;DHT22;53622;0.000;0.000;2022-09-27T11:59:04;21.30;63.60
66708;DHT22;53622;0.000;0.000;2022-09-27T12:01:41;21.30;63.60
66708;DHT22;53622;0.000;0.000;2022-09-27T12:07:18;21.30;63.50
66708;DHT22;53622;0.000;0.000;2022-09-27T12:09:54;21.30;63.60
66708;DHT22;53622;0.000;0.000;2022-09-27T12:12:28;21.30;63.60
66708;DHT22;53622;0.000;0.000;2022-09-27T12:15:02;21.30;63.60
66708;DHT22;53622;0.000;0.000;2022-09-27T12:17:38;21.30;63.60
66708;DHT22;53622;0.000;0.000;2022-09-27T12:20:16;21.30;63.60
66708;DHT22;53622;0.000;0.000;2022-09-27T12:22:53;21.30;63.60
66708;DHT22;53622;0.000;0.000;2022-09-27T12:25:59;21.30;63.60
66708;DHT22;53622;0.000;0.000;2022-09-27T12:28:36;21.30;63.60
66708;DHT22;53622;0.000;0.000;2022-09-27T12:31:15;21.30;63.60
66708;DHT22;53622;0.000;0.000;2022-09-27T12:34:02;21.30;63.60
66708;DHT22;53622;0.000;0.000;2022-09-27T12:36:35;21.30;63.50
66708;DHT22;53622;0.000;0.000;2022-09-27T12:39:16;21.30;63.50
66708;DHT22;53622;0.000;0.000;2022-09-27T12:41:57;21.30;63.50
66708;DHT22;53622;0.000;0.000;2022-09-27T12:44:40;21.30;63.50
66708;DHT22;53622;0.000;0.000;2022-09-27T12:50:29;21.30;63.40
66708;DHT22;53622;0.000;0.000;2022-09-27T12:53:03;21.30;63.50
66708;DHT22;53622;0.000;0.000;2022-09-27T12:55:51;21.30;63.40
66708;DHT22;53622;0.000;0.000;2022-09-27T13:01:35;21.30;63.40
66708;DHT22;53622;0.000;0.000;2022-09-27T13:04:34;21.30;63.40
66708;DHT22;53622;0.000;0.000;2022-09-27T13:07:20;21.30;63.30
66708;DHT22;53622;0.000;0.000;2022-09-27T13:10:14;21.30;63.40
66708;DHT22;53622;0.000;0.000;2022-09-27T13:12:55;21.30;63.30
66708;DHT22;53622;0.000;0.000;2022-09-27T13:15:31;21.30;63.30
66708;DHT22;53622;0.000;0.000;2022-09-27T13:18:02;21.30;63.30
66708;DHT22;53622;0.000;0.000;2022-09-27T13:20:44;21.30;63.20
66708;DHT22;53622;0.000;0.000;2022-09-27T13:23:55;21.30;63.10
66708;DHT22;53622;0.000;0.000;2022-09-27T13:26:47;21.40;63.20
66708;DHT22;53622;0.000;0.000;2022-09-27T13:29:30;21.40;63.10
66708;DHT22;53622;0.000;0.000;2022-09-27T13:32:25;21.40;63.10
66708;DHT22;53622;0.000;0.000;2022-09-27T13:35:18;21.40;63.10
66708;DHT22;53622;0.000;0.000;2022-09-27T13:38:20;21.40;63.00
66708;DHT22;53622;0.000;0.000;2022-09-27T13:40:52;21.40;63.10
66708;DHT22;53622;0.000;0.000;2022-09-27T13:43:46;21.40;63.00
66708;DHT22;53622;0.000;0.000;2022-09-27T13:46:27;21.40;63.00
66708;DHT22;53622;0.000;0.000;2022-09-27T13:49:02;21.40;63.00
66708;DHT22;53622;0.000;0.000;2022-09-27T13:52:02;21.40;63.00
66708;DHT22;53622;0.000;0.000;2022-09-27T13:54:37;21.40;62.90
66708;DHT22;53622;0.000;0.000;2022-09-27T13:57:41;21.40;62.90
66708;DHT22;53622;0.000;0.000;2022-09-27T14:00:18;21.40;62.90
66708;DHT22;53622;0.000;0.000;2022-09-27T14:03:00;21.40;63.00
66708;DHT22;53622;0.000;0.000;2022-09-27T14:05:36;21.40;62.90
66708;DHT22;53622;0.000;0.000;2022-09-27T14:08:16;21.30;62.90
66708;DHT22;53622;0.000;0.000;2022-09-27T14:10:48;21.40;63.00
66708;DHT22;53622;0.000;0.000;2022-09-27T14:13:19;21.40;62.90
66708;DHT22;53622;0.000;0.000;2022-09-27T14:16:01;21.40;63.00
66708;DHT22;53622;0.000;0.000;2022-09-27T14:18:35;21.40;62.90
66708;DHT22;53622;0.000;0.000;2022-09-27T14:21:19;21.40;62.90
66708;DHT22;53622;0.000;0.000;2022-09-27T14:24:22;21.40;62.90
66708;DHT22;53622;0.000;0.000;2022-09-27T14:27:04;21.40;62.90
66708;DHT22;53622;0.000;0.000;2022-09-27T14:29:39;21.40;62.80
66708;DHT22;53622;0.000;0.000;2022-09-27T14:32:14;21.40;63.00
66708;DHT22;53622;0.000;0.000;2022-09-27T14:35:12;21.30;62.80
66708;DHT22;53622;0.000;0.000;2022-09-27T14:37:58;21.30;62.90
66708;DHT22;53622;0.000;0.000;2022-09-27T14:40:56;21.30;62.90
66708;DHT22;53622;0.000;0.000;2022-09-27T14:43:27;21.30;62.90
66708;DHT22;53622;0.000;0.000;2022-09-27T14:45:59;21.30;62.90
66708;DHT22;53622;0.000;0.000;2022-09-27T14:48:30;21.30;62.90
66708;DHT22;53622;0.000;0.000;2022-09-27T14:51:01;21.30;62.80
66708;DHT22;53622;0.000;0.000;2022-09-27T14:53:43;21.30;62.80
66708;DHT22;53622;0.000;0.000;2022-09-27T14:56:14;21.30;62.80
66708;DHT22;53622;0.000;0.000;2022-09-27T14:58:45;21.30;62.70
66708;DHT22;53622;0.000;0.000;2022-09-27T15:01:15;21.30;62.70
66708;DHT22;53622;0.000;0.000;2022-09-27T15:03:47;21.30;62.80
66708;DHT22;53622;0.000;0.000;2022-09-27T15:06:17;21.30;62.70
66708;DHT22;53622;0.000;0.000;2022-09-27T15:08:48;21.30;62.60
66708;DHT22;53622;0.000;0.000;2022-09-27T15:11:17;21.40;62.80
66708;DHT22;53622;0.000;0.000;2022-09-27T15:13:50;21.40;63.00
66708;DHT22;53622;0.000;0.000;2022-09-27T15:16:22;21.40;63.10
66708;DHT22;53622;0.000;0.000;2022-09-27T15:18:59;21.40;63.10
66708;DHT22;53622;0.000;0.000;2022-09-27T15:21:32;21.40;63.30
66708;DHT22;53622;0.000;0.000;2022-09-27T15:24:03;21.30;63.30
66708;DHT22;53622;0.000;0.000;2022-09-27T15:26:36;21.30;63.30
66708;DHT22;53622;0.000;0.000;2022-09-27T15:29:14;21.40;63.30
66708;DHT22;53622;0.000;0.000;2022-09-27T15:31:56;21.40;63.40
66708;DHT22;53622;0.000;0.000;2022-09-27T15:34:26;21.40;63.40
66708;DHT22;53622;0.000;0.000;2022-09-27T15:36:57;21.40;63.40
66708;DHT22;53622;0.000;0.000;2022-09-27T15:39:31;21.40;63.40
66708;DHT22;53622;0.000;0.000;2022-09-27T15:42:04;21.40;63.40
66708;DHT22;53622;0.000;0.000;2022-09-27T15:44:37;21.40;63.40
66708;DHT22;53622;0.000;0.000;2022-09-27T15:47:40;21.40;63.40
66708;DHT22;53622;0.000;0.000;2022-09-27T15:50:38;21.40;63.30
66708;DHT22;53622;0.000;0.000;2022-09-27T15:53:08;21.40;63.30
66708;DHT22;53622;0.000;0.000;2022-09-27T15:55:41;21.40;63.40
66708;DHT22;53622;0.000;0.000;2022-09-27T15:58:15;21.40;64.10
66708;DHT22;53622;0.000;0.000;2022-09-27T16:00:51;21.40;63.30
66708;DHT22;53622;0.000;0.000;2022-09-27T16:03:22;21.40;63.20
66708;DHT22;53622;0.000;0.000;2022-09-27T16:05:52;21.40;63.20
66708;DHT22;53622;0.000;0.000;2022-09-27T16:08:23;21.40;63.20
66708;DHT22;53622;0.000;0.000;2022-09-27T16:10:56;21.40;63.20
66708;DHT22;53622;0.000;0.000;2022-09-27T16:13:26;21.40;64.00
66708;DHT22;53622;0.000;0.000;2022-09-27T16:16:01;21.40;63.30
66708;DHT22;53622;0.000;0.000;2022-09-27T16:18:31;21.40;63.20
66708;DHT22;53622;0.000;0.000;2022-09-27T16:21:00;21.40;63.10
66708;DHT22;53622;0.000;0.000;2022-09-27T16:23:30;21.40;63.10
66708;DHT22;53622;0.000;0.000;2022-09-27T16:26:00;21.40;63.00
66708;DHT22;53622;0.000;0.000;2022-09-27T16:28:29;21.30;62.90
66708;DHT22;53622;0.000;0.000;2022-09-27T16:31:03;21.30;63.00
66708;DHT22;53622;0.000;0.000;2022-09-27T16:33:33;21.30;63.10
66708;DHT22;53622;0.000;0.000;2022-09-27T16:36:07;21.30;63.00
66708;DHT22;53622;0.000;0.000;2022-09-27T16:38:41;21.40;63.00
66708;DHT22;53622;0.000;0.000;2022-09-27T16:41:12;21.40;63.00
66708;DHT22;53622;0.000;0.000;2022-09-27T16:43:41;21.30;62.90
66708;DHT22;53622;0.000;0.000;2022-09-27T16:46:12;21.30;62.90
66708;DHT22;53622;0.000;0.000;2022-09-27T16:48:46;21.30;62.90
66708;DHT22;53622;0.000;0.000;2022-09-27T16:51:18;21.30;63.00
66708;DHT22;53622;0.000;0.000;2022-09-27T16:54:05;21.30;63.00
66708;DHT22;53622;0.000;0.000;2022-09-27T16:56:37;21.30;63.00
66708;DHT22;53622;0.000;0.000;2022-09-27T16:59:06;21.30;63.00
66708;DHT22;53622;0.000;0.000;2022-09-27T17:01:36;21.30;63.00
66708;DHT22;53622;0.000;0.000;2022-09-27T17:04:05;21.30;63.00
66708;DHT22;53622;0.000;0.000;2022-09-27T17:06:35;21.30;62.90
66708;DHT22;53622;0.000;0.000;2022-09-27T17:09:04;21.30;63.00
66708;DHT22;53622;0.000;0.000;2022-09-27T17:11:35;21.30;63.00
66708;DHT22;53622;0.000;0.000;2022-09-27T17:14:05;21.30;63.00
66708;DHT22;53622;0.000;0.000;2022-09-27T17:16:34;21.30;63.10
66708;DHT22;53622;0.000;0.000;2022-09-27T17:19:03;21.30;63.00
66708;DHT22;53622;0.000;0.000;2022-09-27T17:21:32;21.30;62.90